Time;durP1;ratioP1;P1;durP2;ratioP2;P2;SDS_P1;SDS_P2;PMS_P1;PMS_P2;Temp;Humidity;BMP_temperature;BMP_pressure;BME280_temperature;BME280_humidity;BME280_pressure;Samples;Min_cycle;Max_cycle;Signal;HPM_P1;HPM_P2
2023/08/10 00:01:12;;;;;;;6.57;3.20;;;14.30;99.90;;;;;;5011854;28;20045;-70
2023/08/10 00:03:38;;;;;;;6.97;3.30;;;14.20;99.90;;;;;;5001250;28;20044;-70
2023/08/10 00:06:04;;;;;;;6.88;3.20;;;14.20;99.90;;;;;;4981531;28;20065;-71
2023/08/10 00:08:30;;;;;;;7.35;3.55;;;14.20;99.90;;;;;;5005605;28;20072;-70
2023/08/10 00:10:56;;;;;;;5.95;3.10;;;14.30;99.90;;;;;;5012665;28;20484;-71
2023/08/10 00:13:22;;;;;;;8.60;3.03;;;14.20;99.90;;;;;;4979880;28;20044;-70
2023/08/10 00:15:47;;;;;;;8.57;3.10;;;14.30;99.90;;;;;;5005226;28;20438;-70
2023/08/10 00:18:14;;;;;;;6.80;3.20;;;14.30;99.90;;;;;;5012717;28;20037;-70
2023/08/10 00:20:40;;;;;;;7.18;3.45;;;14.30;99.90;;;;;;5011584;28;20050;-70
2023/08/10 00:23:06;;;;;;;9.77;3.10;;;14.30;99.90;;;;;;4986597;28;20069;-70
2023/08/10 00:25:31;;;;;;;6.40;3.03;;;14.30;99.90;;;;;;5005021;28;20069;-71
2023/08/10 00:27:57;;;;;;;5.72;2.83;;;14.30;99.90;;;;;;5004644;28;20169;-70
2023/08/10 00:30:23;;;;;;;8.32;3.15;;;14.30;99.90;;;;;;4996981;28;20029;-70
2023/08/10 00:32:48;;;;;;;9.13;3.30;;;14.30;99.90;;;;;;5012375;28;20038;-70
2023/08/10 00:35:14;;;;;;;8.00;3.20;;;14.20;99.90;;;;;;5009614;28;20378;-70
2023/08/10 00:37:40;;;;;;;6.13;3.13;;;14.30;99.90;;;;;;4990116;28;20039;-71
2023/08/10 00:40:09;;;;;;;7.40;3.47;;;14.30;99.90;;;;;;5008104;28;20081;-70
2023/08/10 00:42:34;;;;;;;10.65;3.75;;;14.30;99.90;;;;;;5010858;28;20045;-70
2023/08/10 00:45:00;;;;;;;8.52;3.30;;;14.30;99.90;;;;;;4997344;28;20073;-71
2023/08/10 00:47:26;;;;;;;7.05;3.10;;;14.30;99.90;;;;;;4994578;28;20042;-70
2023/08/10 00:49:53;;;;;;;6.43;3.10;;;14.30;99.90;;;;;;5011089;28;20072;-71
2023/08/10 00:52:18;;;;;;;10.05;3.53;;;14.30;99.90;;;;;;5010840;28;20129;-71
2023/08/10 00:54:44;;;;;;;9.52;3.55;;;14.30;99.90;;;;;;4990938;28;20110;-70
2023/08/10 00:57:10;;;;;;;7.30;3.30;;;14.30;99.90;;;;;;5001263;28;20472;-70
2023/08/10 00:59:38;;;;;;;5.80;3.10;;;14.30;99.90;;;;;;5010417;28;20079;-70
2023/08/10 01:02:03;;;;;;;7.05;3.03;;;14.30;99.90;;;;;;4991828;28;20042;-71
2023/08/10 01:04:29;;;;;;;9.18;3.30;;;14.30;99.90;;;;;;4991314;28;20052;-70
2023/08/10 01:07:09;;;;;;;10.30;3.63;;;14.30;99.90;;;;;;5011808;28;20065;-71
2023/08/10 01:09:58;;;;;;;9.23;3.10;;;14.30;99.90;;;;;;5006481;28;20556;-71
2023/08/10 01:12:36;;;;;;;9.23;3.42;;;14.20;99.90;;;;;;4995991;28;20042;-70
2023/08/10 01:15:29;;;;;;;7.57;3.25;;;14.20;99.90;;;;;;5010383;28;20038;-70
2023/08/10 01:17:57;;;;;;;5.90;3.00;;;14.10;99.90;;;;;;5003792;28;20408;-71
2023/08/10 01:20:25;;;;;;;7.60;3.30;;;14.20;99.90;;;;;;4999932;28;20070;-71
2023/08/10 01:23:15;;;;;;;10.98;3.28;;;14.20;99.90;;;;;;5011598;28;20609;-70
2023/08/10 01:25:43;;;;;;;6.10;3.30;;;14.20;99.90;;;;;;5011838;28;20048;-70
2023/08/10 01:28:12;;;;;;;6.13;3.10;;;14.10;99.90;;;;;;4994646;28;20124;-71
2023/08/10 01:30:40;;;;;;;4.38;3.03;;;14.10;99.90;;;;;;4995385;28;20044;-70
2023/08/10 01:33:05;;;;;;;5.70;2.55;;;14.10;99.90;;;;;;5009861;28;20046;-71
2023/08/10 01:35:31;;;;;;;4.82;2.83;;;14.00;99.90;;;;;;4998272;28;20045;-70
2023/08/10 01:37:56;;;;;;;6.88;3.38;;;14.00;99.90;;;;;;4997000;28;20151;-70
2023/08/10 01:40:22;;;;;;;6.22;2.90;;;13.90;99.90;;;;;;5011695;28;20547;-70
2023/08/10 01:42:48;;;;;;;4.90;2.92;;;13.80;99.90;;;;;;5010193;28;20512;-70
2023/08/10 01:45:13;;;;;;;6.75;3.30;;;13.80;99.90;;;;;;4990076;28;20492;-70
2023/08/10 01:47:52;;;;;;;7.47;3.13;;;13.80;99.90;;;;;;4993553;28;20046;-70
2023/08/10 01:50:20;;;;;;;5.93;3.15;;;13.70;99.90;;;;;;4995869;28;20065;-70
2023/08/10 01:53:08;;;;;;;8.25;3.00;;;13.70;99.90;;;;;;4986853;28;20037;-70
2023/08/10 01:55:34;;;;;;;6.13;3.17;;;13.70;99.90;;;;;;4999732;28;20089;-70
2023/08/10 01:58:00;;;;;;;8.57;3.40;;;13.60;99.90;;;;;;5009865;28;20041;-70
2023/08/10 02:00:25;;;;;;;13.93;3.40;;;13.50;99.90;;;;;;5011453;28;20058;-70
2023/08/10 02:02:51;;;;;;;6.25;3.45;;;13.40;99.90;;;;;;4987554;28;20034;-70
2023/08/10 02:05:17;;;;;;;7.72;3.50;;;13.40;99.90;;;;;;5001499;28;20034;-70
2023/08/10 02:07:48;;;;;;;6.25;3.90;;;13.40;99.90;;;;;;5006920;28;20045;-71
2023/08/10 02:10:14;;;;;;;7.65;4.00;;;13.40;99.90;;;;;;4993301;28;20045;-71
2023/08/10 02:12:40;;;;;;;10.52;3.88;;;13.40;99.90;;;;;;5012507;28;20030;-70
2023/08/10 02:15:06;;;;;;;10.55;4.40;;;13.30;99.90;;;;;;5015364;28;20040;-70
2023/08/10 02:17:35;;;;;;;8.20;3.72;;;13.30;99.90;;;;;;4993298;28;20030;-70
2023/08/10 02:20:14;;;;;;;6.55;4.00;;;13.30;99.90;;;;;;5011686;28;20562;-71
2023/08/10 02:22:48;;;;;;;8.65;3.67;;;13.30;99.90;;;;;;5014924;28;20050;-70
2023/08/10 02:25:15;;;;;;;6.55;3.67;;;13.30;99.90;;;;;;4978696;28;20041;-70
2023/08/10 02:27:41;;;;;;;8.65;3.95;;;13.30;99.90;;;;;;4997338;28;20038;-70
2023/08/10 02:30:09;;;;;;;8.15;3.75;;;13.30;99.90;;;;;;5013903;28;20121;-70
2023/08/10 02:32:35;;;;;;;8.93;3.63;;;13.30;99.90;;;;;;4995011;28;20045;-70
2023/08/10 02:35:04;;;;;;;8.82;4.00;;;13.30;99.90;;;;;;4984530;28;20046;-71
2023/08/10 02:37:30;;;;;;;10.02;3.97;;;13.20;99.90;;;;;;4999926;28;20092;-70
2023/08/10 02:39:56;;;;;;;7.57;4.13;;;13.20;99.90;;;;;;4984762;28;20601;-70
2023/08/10 02:42:22;;;;;;;12.85;4.63;;;13.10;99.90;;;;;;4989107;28;20132;-70
2023/08/10 02:44:49;;;;;;;6.90;4.10;;;13.10;99.90;;;;;;4994997;28;20038;-69
2023/08/10 02:47:15;;;;;;;7.88;4.43;;;13.10;99.90;;;;;;5006841;28;20056;-70
2023/08/10 02:49:40;;;;;;;8.38;4.00;;;13.10;99.90;;;;;;5003440;28;20125;-70
2023/08/10 02:52:06;;;;;;;8.50;4.15;;;13.10;99.90;;;;;;4991382;28;20613;-70
2023/08/10 02:54:32;;;;;;;7.70;3.72;;;13.10;99.90;;;;;;5000339;28;20034;-70
2023/08/10 02:56:58;;;;;;;7.60;4.10;;;13.10;99.90;;;;;;5011600;28;20404;-70
2023/08/10 02:59:23;;;;;;;9.30;4.00;;;13.10;99.90;;;;;;4991011;28;20509;-70
2023/08/10 03:01:49;;;;;;;7.43;4.22;;;13.10;99.90;;;;;;5010337;28;20547;-70
2023/08/10 03:04:15;;;;;;;10.43;4.95;;;13.20;99.90;;;;;;5012576;28;20040;-70
2023/08/10 03:06:40;;;;;;;9.02;4.85;;;13.30;99.90;;;;;;4999421;28;20071;-70
2023/08/10 03:09:06;;;;;;;6.82;4.55;;;13.30;99.90;;;;;;4995402;28;20042;-70
2023/08/10 03:11:32;;;;;;;10.18;4.10;;;13.30;99.90;;;;;;5013679;28;20080;-70
2023/08/10 03:13:58;;;;;;;8.80;4.93;;;13.40;99.90;;;;;;5012580;28;20121;-70
2023/08/10 03:16:24;;;;;;;9.35;4.65;;;13.40;99.90;;;;;;4984294;28;20515;-70
2023/08/10 03:18:50;;;;;;;7.72;4.80;;;13.40;99.90;;;;;;5009459;28;20065;-70
2023/08/10 03:21:16;;;;;;;9.82;4.68;;;13.40;99.90;;;;;;5012311;28;20049;-70
2023/08/10 03:23:42;;;;;;;7.78;4.50;;;13.40;99.90;;;;;;4997914;28;20038;-70
2023/08/10 03:26:08;;;;;;;9.23;4.72;;;13.40;99.90;;;;;;4995374;28;20038;-70
2023/08/10 03:28:34;;;;;;;12.73;4.68;;;13.40;99.90;;;;;;5011845;28;20457;-70
2023/08/10 03:31:00;;;;;;;7.85;4.50;;;13.40;99.90;;;;;;5011030;28;20061;-71
2023/08/10 03:33:25;;;;;;;7.47;4.60;;;13.40;99.90;;;;;;5007130;28;20073;-70
2023/08/10 03:35:51;;;;;;;7.18;4.32;;;13.40;99.90;;;;;;5005871;28;20076;-70
2023/08/10 03:38:17;;;;;;;7.18;4.40;;;13.40;99.90;;;;;;4973857;28;20035;-70
2023/08/10 03:40:42;;;;;;;8.55;4.85;;;13.40;99.90;;;;;;4975096;28;20038;-70
2023/08/10 03:43:08;;;;;;;8.55;4.70;;;13.40;99.90;;;;;;4988917;28;20046;-70
2023/08/10 03:45:34;;;;;;;10.10;4.80;;;13.50;99.90;;;;;;5007002;28;20043;-70
2023/08/10 03:47:59;;;;;;;9.02;4.82;;;13.50;99.90;;;;;;4988702;28;20053;-70
2023/08/10 03:50:25;;;;;;;14.40;5.05;;;13.40;99.90;;;;;;4997103;28;20045;-71
2023/08/10 03:52:50;;;;;;;10.68;5.00;;;13.50;99.90;;;;;;5009228;28;20048;-70
2023/08/10 03:55:18;;;;;;;9.68;4.85;;;13.50;99.90;;;;;;4999762;28;20049;-70
2023/08/10 03:57:44;;;;;;;8.00;4.45;;;13.50;99.90;;;;;;4971776;28;20528;-70
2023/08/10 04:00:11;;;;;;;9.73;4.82;;;13.50;99.90;;;;;;4995180;28;20098;-70
2023/08/10 04:02:37;;;;;;;13.68;5.00;;;13.50;99.90;;;;;;5075397;23;20045;-70
2023/08/10 04:05:06;;;;;;;10.15;5.07;;;13.50;99.90;;;;;;5045436;28;20059;-70
2023/08/10 04:07:37;;;;;;;9.13;4.95;;;13.60;99.90;;;;;;5049686;28;20036;-70
2023/08/10 04:10:06;;;;;;;9.20;5.32;;;13.60;99.90;;;;;;5055557;28;20056;-71
2023/08/10 04:12:35;;;;;;;9.00;5.03;;;13.60;99.90;;;;;;5034603;28;20072;-70
2023/08/10 04:15:02;;;;;;;8.98;5.65;;;13.60;99.90;;;;;;5020532;28;20124;-71
2023/08/10 04:17:28;;;;;;;10.27;5.25;;;13.60;99.90;;;;;;5043532;28;20029;-70
2023/08/10 04:19:54;;;;;;;8.90;5.30;;;13.70;99.90;;;;;;5030321;28;20037;-70
2023/08/10 04:22:20;;;;;;;8.63;5.15;;;13.60;99.90;;;;;;5022156;28;20106;-70
2023/08/10 04:24:46;;;;;;;11.00;5.63;;;13.60;99.90;;;;;;5034417;28;20483;-71
2023/08/10 04:27:11;;;;;;;11.05;5.63;;;13.70;99.90;;;;;;5050046;28;20037;-70
2023/08/10 04:29:37;;;;;;;10.32;5.45;;;13.60;99.90;;;;;;5033655;28;20242;-70
2023/08/10 04:32:04;;;;;;;9.07;5.57;;;13.60;99.90;;;;;;5026650;28;20072;-70
2023/08/10 04:34:32;;;;;;;9.48;5.60;;;13.60;99.90;;;;;;5037539;28;20036;-71
2023/08/10 04:36:57;;;;;;;10.77;5.47;;;13.70;99.90;;;;;;5025212;28;20381;-71
2023/08/10 04:39:23;;;;;;;8.38;5.80;;;13.70;99.90;;;;;;5026326;28;20116;-70
2023/08/10 04:41:49;;;;;;;11.20;5.60;;;13.70;99.90;;;;;;5050776;28;20072;-70
2023/08/10 04:44:14;;;;;;;10.73;6.50;;;13.70;99.90;;;;;;5044849;28;20041;-70
2023/08/10 04:46:40;;;;;;;11.27;6.18;;;13.70;99.90;;;;;;5048549;28;20045;-70
2023/08/10 04:49:05;;;;;;;9.68;5.95;;;13.70;99.90;;;;;;5018573;28;20041;-70
2023/08/10 04:51:31;;;;;;;10.52;6.18;;;13.70;99.90;;;;;;5051487;28;20043;-70
2023/08/10 04:53:57;;;;;;;8.20;5.63;;;13.70;99.90;;;;;;5041080;28;20038;-72
2023/08/10 04:56:22;;;;;;;10.07;5.95;;;13.80;99.90;;;;;;5021749;28;20032;-70
2023/08/10 04:58:48;;;;;;;10.60;6.00;;;13.80;99.90;;;;;;5046474;28;20360;-71
2023/08/10 05:01:14;;;;;;;9.82;6.50;;;13.90;99.90;;;;;;5051736;28;20029;-70
2023/08/10 05:03:40;;;;;;;11.27;6.10;;;13.90;99.90;;;;;;5035185;28;20037;-70
2023/08/10 05:06:06;;;;;;;9.45;6.22;;;13.90;99.90;;;;;;5037344;28;20407;-70
2023/08/10 05:08:31;;;;;;;13.23;6.50;;;14.00;99.90;;;;;;5051385;28;20044;-70
2023/08/10 05:10:58;;;;;;;19.98;5.80;;;14.00;99.90;;;;;;5027208;28;20505;-70
2023/08/10 05:13:24;;;;;;;8.65;5.95;;;14.00;99.90;;;;;;5023652;28;20406;-70
2023/08/10 05:15:50;;;;;;;8.95;5.95;;;14.00;99.90;;;;;;5043753;28;20044;-70
2023/08/10 05:18:17;;;;;;;13.32;6.15;;;14.10;99.90;;;;;;5049989;28;20055;-70
2023/08/10 05:20:43;;;;;;;11.65;6.15;;;14.10;99.90;;;;;;5027290;28;20041;-71
2023/08/10 05:23:09;;;;;;;9.18;5.82;;;14.10;99.90;;;;;;5017250;28;20052;-71
2023/08/10 05:25:35;;;;;;;16.67;6.03;;;14.10;99.90;;;;;;5041668;28;20124;-74
2023/08/10 05:28:00;;;;;;;10.13;6.25;;;14.20;99.90;;;;;;5034037;28;20048;-71
2023/08/10 05:30:26;;;;;;;12.98;6.45;;;14.30;99.90;;;;;;5018154;28;20059;-72
2023/08/10 05:32:51;;;;;;;13.70;6.25;;;14.40;99.90;;;;;;5014444;28;20038;-70
2023/08/10 05:35:17;;;;;;;10.50;6.65;;;14.30;99.90;;;;;;5011135;28;20140;-70
2023/08/10 05:37:43;;;;;;;15.32;7.38;;;14.40;99.90;;;;;;5001269;28;20993;-73
2023/08/10 05:40:11;;;;;;;14.35;6.80;;;14.50;99.90;;;;;;5021185;28;20047;-70
2023/08/10 05:42:37;;;;;;;11.68;7.30;;;14.50;99.90;;;;;;5013589;28;20052;-72
2023/08/10 05:45:06;;;;;;;16.90;7.80;;;14.60;99.90;;;;;;5015002;28;20654;-73
2023/08/10 05:47:33;;;;;;;14.65;8.63;;;14.60;99.90;;;;;;5019857;28;20407;-70
2023/08/10 05:49:58;;;;;;;16.75;8.00;;;14.60;99.90;;;;;;5025053;28;20055;-70
2023/08/10 05:52:24;;;;;;;13.13;8.43;;;14.60;99.90;;;;;;5036044;28;20037;-70
2023/08/10 05:54:50;;;;;;;14.82;8.30;;;14.60;99.90;;;;;;5024663;28;20041;-72
2023/08/10 05:57:15;;;;;;;16.63;8.00;;;14.60;99.90;;;;;;5022284;28;20048;-70
2023/08/10 05:59:41;;;;;;;12.60;7.68;;;14.70;99.90;;;;;;5024471;28;20037;-70
2023/08/10 06:02:07;;;;;;;12.73;8.63;;;14.70;99.90;;;;;;5025872;28;20044;-71
2023/08/10 06:04:34;;;;;;;15.43;8.07;;;14.80;99.90;;;;;;5028708;28;20098;-70
2023/08/10 06:06:59;;;;;;;15.48;8.93;;;14.90;99.90;;;;;;5027436;28;20053;-70
2023/08/10 06:09:28;;;;;;;11.55;8.10;;;15.10;99.90;;;;;;5019491;28;20412;-72
2023/08/10 06:11:55;;;;;;;13.88;8.15;;;15.30;99.90;;;;;;5023009;28;20046;-70
2023/08/10 06:14:20;;;;;;;15.32;8.38;;;15.40;99.90;;;;;;5009649;28;20053;-71
2023/08/10 06:16:46;;;;;;;15.27;8.05;;;15.60;99.90;;;;;;5021832;28;20033;-72
2023/08/10 06:19:15;;;;;;;9.55;7.22;;;15.70;99.90;;;;;;5016691;28;20439;-73
2023/08/10 06:21:41;;;;;;;9.45;6.85;;;15.80;99.90;;;;;;5027717;28;20095;-70
2023/08/10 06:24:09;;;;;;;15.52;6.90;;;15.80;99.90;;;;;;5025173;28;20037;-69
2023/08/10 06:26:35;;;;;;;14.45;6.80;;;15.90;99.90;;;;;;5023216;28;20056;-70
2023/08/10 06:29:02;;;;;;;12.32;6.53;;;16.00;99.90;;;;;;5015206;28;20056;-70
2023/08/10 06:31:28;;;;;;;11.07;7.10;;;16.10;99.90;;;;;;5016531;28;20049;-71
2023/08/10 06:33:54;;;;;;;12.60;6.32;;;16.10;99.90;;;;;;5026747;28;20037;-72
2023/08/10 06:36:21;;;;;;;11.35;6.15;;;16.10;99.90;;;;;;5020980;28;20049;-72
2023/08/10 06:38:47;;;;;;;9.07;5.80;;;16.00;99.90;;;;;;5022943;28;20045;-70
2023/08/10 06:41:12;;;;;;;11.65;5.95;;;16.00;99.90;;;;;;5022348;28;20163;-70
2023/08/10 06:43:38;;;;;;;10.63;5.95;;;15.90;99.90;;;;;;5022706;28;20072;-72
2023/08/10 06:46:03;;;;;;;9.00;6.20;;;15.80;99.90;;;;;;5019913;28;20253;-71
2023/08/10 06:48:29;;;;;;;13.98;6.60;;;15.90;99.90;;;;;;5021919;28;20053;-70
2023/08/10 06:50:55;;;;;;;10.85;6.53;;;16.00;99.90;;;;;;5028242;28;20102;-70
2023/08/10 06:53:21;;;;;;;13.02;5.85;;;16.10;99.90;;;;;;5025755;28;20457;-71
2023/08/10 06:55:47;;;;;;;11.20;6.85;;;16.30;99.90;;;;;;5034773;28;20084;-69
2023/08/10 06:58:13;;;;;;;12.23;6.20;;;16.50;99.90;;;;;;5034522;28;20045;-69
2023/08/10 07:00:39;;;;;;;10.60;5.88;;;16.60;99.90;;;;;;5029971;28;20038;-72
2023/08/10 07:03:06;;;;;;;8.70;4.07;;;16.90;99.90;;;;;;5032613;28;20095;-71
2023/08/10 07:05:40;;;;;;;11.45;3.85;;;17.00;99.90;;;;;;5043682;28;20040;-70
2023/08/10 07:08:07;;;;;;;10.65;4.10;;;17.00;99.90;;;;;;5026148;28;20046;-70
2023/08/10 07:10:32;;;;;;;11.40;4.03;;;17.00;99.90;;;;;;5029409;28;20503;-70
2023/08/10 07:12:58;;;;;;;7.68;3.72;;;17.10;99.90;;;;;;5033038;28;20037;-70
2023/08/10 07:15:23;;;;;;;7.53;3.97;;;17.20;99.90;;;;;;5033489;28;20029;-70
2023/08/10 07:17:49;;;;;;;8.30;3.65;;;17.30;99.90;;;;;;5028666;28;20243;-70
2023/08/10 07:20:18;;;;;;;8.60;3.65;;;17.30;99.90;;;;;;5026782;28;20029;-70
2023/08/10 07:22:45;;;;;;;6.93;3.60;;;17.40;99.90;;;;;;5030991;28;20095;-70
2023/08/10 07:25:12;;;;;;;7.93;3.15;;;17.50;99.90;;;;;;5028979;28;20041;-71
2023/08/10 07:27:37;;;;;;;7.63;2.90;;;17.50;99.90;;;;;;5032078;28;20373;-69
2023/08/10 07:30:04;;;;;;;4.38;2.78;;;17.50;99.90;;;;;;5043018;28;20501;-70
2023/08/10 07:32:29;;;;;;;11.45;3.17;;;17.40;99.90;;;;;;5035101;28;20064;-70
2023/08/10 07:34:56;;;;;;;7.85;4.00;;;17.40;99.90;;;;;;5010432;28;20131;-70
2023/08/10 07:37:21;;;;;;;9.05;3.33;;;17.20;99.90;;;;;;5023377;28;20124;-72
2023/08/10 07:39:47;;;;;;;4.88;3.10;;;17.20;99.90;;;;;;5022633;28;20079;-70
2023/08/10 07:42:13;;;;;;;8.55;3.58;;;17.20;99.90;;;;;;5016684;28;20051;-70
2023/08/10 07:44:39;;;;;;;9.95;3.83;;;17.30;99.90;;;;;;5029446;28;20490;-70
2023/08/10 07:47:04;;;;;;;7.50;3.50;;;17.50;99.90;;;;;;5049066;28;20087;-69
2023/08/10 07:49:31;;;;;;;5.78;3.50;;;17.60;99.90;;;;;;5037108;28;20042;-70
2023/08/10 07:51:57;;;;;;;11.52;3.83;;;17.80;99.90;;;;;;5026715;28;20049;-70
2023/08/10 07:54:23;;;;;;;7.57;3.42;;;18.00;99.90;;;;;;5032413;28;20068;-73
2023/08/10 07:56:49;;;;;;;7.10;3.30;;;18.30;99.90;;;;;;5038064;28;20072;-69
2023/08/10 07:59:17;;;;;;;7.63;3.10;;;18.40;99.90;;;;;;5015175;28;20033;-70
2023/08/10 08:01:43;;;;;;;6.18;2.97;;;18.50;99.90;;;;;;5018777;28;20045;-69
2023/08/10 08:04:09;;;;;;;7.70;2.70;;;18.60;99.90;;;;;;5029526;28;20069;-69
2023/08/10 08:06:38;;;;;;;7.68;3.28;;;18.70;99.90;;;;;;5042711;28;20120;-70
2023/08/10 08:09:06;;;;;;;4.82;2.42;;;18.70;99.90;;;;;;5022954;28;20571;-65
2023/08/10 08:11:32;;;;;;;7.38;2.95;;;18.80;99.90;;;;;;5023963;28;20056;-71
2023/08/10 08:13:58;;;;;;;6.25;2.58;;;18.70;99.90;;;;;;5029601;28;20028;-69
2023/08/10 08:16:23;;;;;;;4.40;2.65;;;18.60;99.90;;;;;;5035707;28;20119;-71
2023/08/10 08:18:53;;;;;;;6.47;2.95;;;18.60;99.90;;;;;;5045236;28;20179;-71
2023/08/10 08:21:29;;;;;;;6.63;2.78;;;18.60;99.90;;;;;;5030765;28;20554;-70
2023/08/10 08:23:55;;;;;;;10.57;2.97;;;18.60;99.90;;;;;;5024423;28;20030;-70
2023/08/10 08:26:28;;;;;;;5.20;2.50;;;18.50;99.90;;;;;;5042859;28;20546;-70
2023/08/10 08:28:55;;;;;;;8.88;2.70;;;18.40;99.90;;;;;;5050819;28;20343;-69
2023/08/10 08:31:20;;;;;;;6.30;2.38;;;18.40;99.90;;;;;;5023840;28;20457;-70
2023/08/10 08:33:46;;;;;;;5.75;2.30;;;18.40;99.90;;;;;;5026165;28;20069;-70
2023/08/10 08:36:13;;;;;;;7.55;2.25;;;18.30;99.90;;;;;;5048409;28;20053;-70
2023/08/10 08:38:38;;;;;;;5.95;2.10;;;18.30;99.90;;;;;;5030641;28;20413;-70
2023/08/10 08:41:07;;;;;;;8.10;2.60;;;18.30;99.90;;;;;;5028355;28;20548;-70
2023/08/10 08:43:34;;;;;;;4.93;2.30;;;18.30;99.90;;;;;;5038725;28;20029;-70
2023/08/10 08:46:00;;;;;;;5.53;2.60;;;18.20;99.90;;;;;;5047618;28;20048;-69
2023/08/10 08:48:27;;;;;;;7.68;2.97;;;18.20;99.90;;;;;;5040371;28;20042;-72
2023/08/10 08:50:54;;;;;;;6.00;2.50;;;18.20;99.90;;;;;;5025232;28;20466;-71
2023/08/10 08:53:20;;;;;;;9.52;2.70;;;18.20;99.90;;;;;;5023885;28;20040;-70
2023/08/10 08:55:46;;;;;;;5.30;2.95;;;18.20;99.90;;;;;;5021900;28;20049;-70
2023/08/10 08:58:16;;;;;;;5.85;3.35;;;18.30;99.90;;;;;;5013702;28;20037;-71
2023/08/10 09:00:54;;;;;;;6.68;3.40;;;18.30;99.90;;;;;;5019860;28;20038;-72
2023/08/10 09:03:24;;;;;;;7.65;3.15;;;18.40;99.90;;;;;;5020975;28;20124;-68
2023/08/10 09:05:50;;;;;;;10.35;2.95;;;18.50;99.90;;;;;;5008077;28;20051;-72
2023/08/10 09:08:17;;;;;;;7.40;2.90;;;18.50;99.90;;;;;;5017605;28;20033;-72
2023/08/10 09:10:45;;;;;;;9.40;3.35;;;18.50;99.90;;;;;;5024894;28;20221;-70
2023/08/10 09:13:21;;;;;;;9.80;3.50;;;18.50;99.90;;;;;;5016277;28;20034;-68
2023/08/10 09:15:47;;;;;;;8.32;3.38;;;18.60;99.90;;;;;;5019009;28;20052;-69
2023/08/10 09:18:13;;;;;;;8.63;3.30;;;18.60;99.90;;;;;;5023635;28;20052;-69
2023/08/10 09:20:38;;;;;;;5.15;2.65;;;18.60;99.90;;;;;;5013771;28;20415;-68
2023/08/10 09:23:05;;;;;;;10.20;3.60;;;18.60;99.90;;;;;;5019555;28;20045;-68
2023/08/10 09:25:36;;;;;;;13.05;3.38;;;18.70;99.90;;;;;;5022533;28;20056;-71
2023/08/10 09:28:08;;;;;;;7.53;2.90;;;18.60;99.90;;;;;;5023210;28;20044;-72
2023/08/10 09:30:33;;;;;;;7.60;3.10;;;18.70;99.90;;;;;;5019252;28;20500;-71
2023/08/10 09:32:59;;;;;;;7.57;2.85;;;18.70;99.90;;;;;;5016826;28;20045;-70
2023/08/10 09:35:29;;;;;;;5.88;2.60;;;18.90;99.90;;;;;;5020598;28;20037;-70
2023/08/10 09:38:00;;;;;;;5.57;2.23;;;19.00;99.90;;;;;;5014770;28;20034;-72
2023/08/10 09:40:26;;;;;;;6.47;2.70;;;19.00;99.90;;;;;;5019797;28;20275;-68
2023/08/10 09:42:53;;;;;;;5.80;2.50;;;19.00;99.90;;;;;;5024257;28;20045;-68
2023/08/10 09:45:19;;;;;;;7.75;2.40;;;19.00;99.90;;;;;;5021947;28;20594;-71
2023/08/10 09:47:45;;;;;;;5.40;2.50;;;19.00;99.90;;;;;;5015374;28;20072;-72
2023/08/10 09:50:13;;;;;;;4.45;2.45;;;18.90;99.90;;;;;;5023546;28;20045;-70
2023/08/10 09:52:40;;;;;;;5.38;2.42;;;18.90;99.90;;;;;;5023276;28;20898;-70
2023/08/10 09:55:07;;;;;;;7.32;2.90;;;18.90;99.90;;;;;;5013841;28;20060;-70
2023/08/10 09:57:33;;;;;;;6.93;2.60;;;19.00;99.90;;;;;;5020881;28;20621;-70
2023/08/10 09:59:59;;;;;;;7.05;2.40;;;19.00;99.90;;;;;;5025352;28;20048;-71
2023/08/10 10:02:26;;;;;;;6.88;2.33;;;19.00;99.90;;;;;;5021157;28;20041;-70
2023/08/10 10:04:52;;;;;;;7.65;2.60;;;19.00;99.90;;;;;;5035071;28;20052;-71
2023/08/10 10:07:27;;;;;;;7.13;2.72;;;19.10;99.90;;;;;;5018231;28;20775;-70
2023/08/10 10:09:59;;;;;;;6.80;2.80;;;19.20;99.90;;;;;;5019349;28;20044;-70
2023/08/10 10:12:25;;;;;;;5.95;2.60;;;19.30;99.90;;;;;;5016449;28;20502;-68
2023/08/10 10:14:52;;;;;;;7.38;2.88;;;19.40;99.90;;;;;;5022775;28;20049;-69
2023/08/10 10:17:19;;;;;;;5.13;2.50;;;19.50;99.90;;;;;;5019378;28;20037;-71
2023/08/10 10:19:48;;;;;;;5.35;2.90;;;19.40;99.90;;;;;;5042191;28;20484;-69
2023/08/10 10:22:16;;;;;;;7.63;2.90;;;19.40;99.90;;;;;;5026539;28;20045;-69
2023/08/10 10:24:42;;;;;;;7.25;2.80;;;19.40;99.90;;;;;;5019267;28;20380;-69
2023/08/10 10:27:09;;;;;;;5.13;2.72;;;19.50;99.90;;;;;;5017492;28;20033;-70
2023/08/10 10:29:45;;;;;;;6.80;2.50;;;19.60;99.90;;;;;;5007532;28;20048;-70
2023/08/10 10:32:13;;;;;;;7.32;2.83;;;19.60;99.90;;;;;;5017447;28;20630;-69
2023/08/10 10:34:40;;;;;;;9.02;3.00;;;19.80;99.90;;;;;;5038844;28;20048;-72
2023/08/10 10:37:12;;;;;;;4.97;2.97;;;20.00;99.90;;;;;;5043685;28;20030;-70
2023/08/10 10:39:39;;;;;;;7.65;2.80;;;20.30;99.90;;;;;;5052611;28;20040;-69
2023/08/10 10:42:05;;;;;;;6.13;2.88;;;20.40;99.90;;;;;;5042420;28;20045;-69
2023/08/10 10:45:03;;;;;;;8.05;2.70;;;20.40;99.90;;;;;;5031307;28;20045;-69
2023/08/10 10:47:40;;;;;;;4.55;2.88;;;20.50;99.90;;;;;;5034886;28;20045;-69
2023/08/10 10:50:19;;;;;;;7.22;3.10;;;20.50;99.90;;;;;;5020060;28;20060;-73
2023/08/10 10:52:59;;;;;;;4.10;2.67;;;20.30;99.90;;;;;;5023855;28;20060;-72
2023/08/10 10:55:27;;;;;;;7.45;3.10;;;20.20;99.90;;;;;;5037959;28;20048;-72
2023/08/10 10:57:53;;;;;;;6.97;2.88;;;20.10;99.90;;;;;;5040237;28;20120;-70
2023/08/10 11:00:20;;;;;;;7.60;3.03;;;20.10;99.90;;;;;;5020019;28;20041;-72
2023/08/10 11:02:46;;;;;;;5.47;2.80;;;20.10;99.90;;;;;;5019994;28;20048;-74
2023/08/10 11:05:14;;;;;;;6.63;3.03;;;20.00;99.90;;;;;;5028230;28;20480;-73
2023/08/10 11:07:41;;;;;;;11.77;3.20;;;20.10;99.90;;;;;;5034808;28;20483;-73
2023/08/10 11:10:07;;;;;;;8.68;3.00;;;20.20;99.90;;;;;;5043652;28;20503;-73
2023/08/10 11:12:33;;;;;;;6.78;3.20;;;20.20;99.90;;;;;;5045188;28;20053;-71
2023/08/10 11:14:58;;;;;;;4.15;2.55;;;20.40;99.90;;;;;;5033340;28;20037;-71
2023/08/10 11:17:28;;;;;;;10.23;2.88;;;20.50;99.90;;;;;;5028586;28;20522;-70
2023/08/10 11:19:54;;;;;;;6.60;2.58;;;20.60;99.90;;;;;;5019944;28;20037;-69
2023/08/10 11:22:20;;;;;;;7.22;2.70;;;20.60;99.90;;;;;;5032442;28;20090;-67
2023/08/10 11:24:46;;;;;;;7.00;3.05;;;20.80;99.90;;;;;;5011886;28;20037;-72
2023/08/10 11:27:11;;;;;;;7.97;2.70;;;21.00;99.90;;;;;;5019389;28;20522;-71
2023/08/10 11:29:37;;;;;;;8.25;3.22;;;21.10;99.90;;;;;;5016258;28;20034;-69
2023/08/10 11:32:03;;;;;;;7.30;2.92;;;21.10;99.90;;;;;;5040624;28;20055;-73
2023/08/10 11:34:29;;;;;;;10.23;3.50;;;21.40;99.90;;;;;;5043810;28;20095;-70
2023/08/10 11:36:54;;;;;;;6.97;3.05;;;21.70;99.90;;;;;;5027598;28;20535;-70
2023/08/10 11:39:21;;;;;;;6.10;2.90;;;22.00;99.90;;;;;;5033598;28;20049;-72
2023/08/10 11:41:46;;;;;;;10.55;3.10;;;22.10;99.90;;;;;;5044603;28;20533;-72
2023/08/10 11:44:27;;;;;;;4.90;2.75;;;22.10;99.90;;;;;;5032939;28;20076;-72
2023/08/10 11:46:58;;;;;;;5.45;3.42;;;22.10;99.90;;;;;;5018930;28;20033;-71
2023/08/10 11:49:30;;;;;;;6.60;2.87;;;22.20;99.90;;;;;;5003695;28;20484;-69
2023/08/10 11:52:02;;;;;;;6.05;2.90;;;22.20;99.90;;;;;;5012142;28;20304;-70
2023/08/10 11:54:34;;;;;;;6.72;2.90;;;22.20;99.90;;;;;;5012897;28;20045;-70
2023/08/10 11:57:11;;;;;;;5.53;3.40;;;22.30;99.90;;;;;;5040236;28;20041;-69
2023/08/10 11:59:37;;;;;;;6.38;2.90;;;22.40;99.90;;;;;;5015739;28;20056;-69
2023/08/10 12:02:04;;;;;;;7.28;3.28;;;22.60;99.90;;;;;;5027455;28;20140;-72
2023/08/10 12:04:33;;;;;;;8.77;3.45;;;22.30;99.90;;;;;;5027726;28;20037;-72
2023/08/10 12:07:00;;;;;;;5.05;3.20;;;22.30;99.90;;;;;;5028268;28;20037;-69
2023/08/10 12:09:30;;;;;;;8.38;3.60;;;22.40;99.90;;;;;;5016971;28;20138;-70
2023/08/10 12:11:57;;;;;;;6.38;3.45;;;22.40;99.90;;;;;;5038232;28;20037;-70
2023/08/10 12:14:24;;;;;;;9.50;4.22;;;22.60;99.90;;;;;;5039910;28;20049;-70
2023/08/10 12:16:50;;;;;;;9.32;3.60;;;22.40;99.90;;;;;;5024572;28;20038;-69
2023/08/10 12:19:16;;;;;;;8.10;3.60;;;22.30;99.90;;;;;;5035740;28;20609;-69
2023/08/10 12:21:41;;;;;;;9.40;4.18;;;22.20;99.90;;;;;;5022927;28;20124;-69
2023/08/10 12:24:07;;;;;;;9.20;4.20;;;22.20;99.90;;;;;;5041927;28;20502;-69
2023/08/10 12:26:33;;;;;;;8.40;3.72;;;22.40;99.90;;;;;;5031572;28;20136;-69
2023/08/10 12:28:58;;;;;;;10.07;4.15;;;22.60;99.90;;;;;;5031642;28;20118;-71
2023/08/10 12:31:25;;;;;;;8.57;3.95;;;22.80;99.90;;;;;;5047700;28;20109;-69
2023/08/10 12:33:54;;;;;;;9.38;4.15;;;22.90;99.90;;;;;;5025654;28;20053;-72
2023/08/10 12:36:20;;;;;;;6.88;4.28;;;23.20;99.90;;;;;;5022978;28;20144;-70
2023/08/10 12:38:46;;;;;;;8.30;4.10;;;23.20;99.90;;;;;;5013983;28;20802;-71
2023/08/10 12:41:11;;;;;;;5.60;3.90;;;23.30;99.90;;;;;;5018745;28;20143;-71
2023/08/10 12:43:37;;;;;;;5.55;3.67;;;23.40;99.90;;;;;;5018890;28;20144;-71